Station Historical Data
Daily Summary for April 23, 2017 Units:  Metric    English   Both
« Previous Day
Next Day »
Daily Weekly Monthly Yearly Custom
  High: Low: Average:
Temperature: 17 °C 0.6 °C 9.1 °C
Dew Point: 4.9 °C -4.7 °C 0.4 °C
Humidity: 91% 24% 60%
Wind Speed: 14.5km/h 0km/h 3.9km/h
Wind Gust: 20.9km/h - -
Wind- - SW
Pressure: 1020.9 hPa 1017.8 hPa -
Precipitation: 0 mm    
Historical Graphs
 
 
Tabular Data for April 23, 2017
Time Temperature Dew Point Pressure Wind Wind Speed Wind Gust Humidity Rainfall Rate (Hourly)
00:04 3.7 °C 1.3 °C 1020.2 hPa Calm     84% 0 mm
00:09 3.7 °C 1.2 °C 1020.2 hPa Calm     84% 0 mm
00:14 3.8 °C 1.5 °C 1020.5 hPa Calm     85% 0 mm
00:19 3.7 °C 1.4 °C 1020.5 hPa Calm     85% 0 mm
00:24 3.7 °C 1.4 °C 1020.5 hPa Calm   3.2 km/h 85% 0 mm
00:29 3.8 °C 1.7 °C 1020.5 hPa Calm   3.2 km/h 86% 0 mm
00:34 3.8 °C 1.5 °C 1020.5 hPa Calm   3.2 km/h 85% 0 mm
00:39 3.9 °C 1.8 °C 1020.5 hPa Calm   1.6 km/h 86% 0 mm
00:44 3.8 °C 1.7 °C 1020.5 hPa Calm     86% 0 mm
00:49 3.7 °C 1.6 °C 1020.5 hPa Calm     86% 0 mm
00:54 3.6 °C 1.5 °C 1020.5 hPa Calm   3.2 km/h 86% 0 mm
00:59 3.5 °C 1.6 °C 1020.5 hPa Calm   3.2 km/h 87% 0 mm
01:04 3.5 °C 1.6 °C 1020.5 hPa Calm     87% 0 mm
01:09 3.5 °C 1.6 °C 1020.5 hPa Calm     87% 0 mm
01:14 3.4 °C 1.4 °C 1020.5 hPa Calm     87% 0 mm
01:19 3.3 °C 1.5 °C 1020.5 hPa Calm     88% 0 mm
01:24 3.2 °C 1.4 °C 1020.5 hPa Calm     88% 0 mm
01:29 3 °C 1.2 °C 1020.5 hPa Calm     88% 0 mm
01:34 2.8 °C 1.1 °C 1020.5 hPa Calm     88% 0 mm
01:39 2.7 °C 0.9 °C 1020.5 hPa Calm     88% 0 mm
01:44 2.6 °C 1 °C 1020.5 hPa Calm     89% 0 mm
01:49 2.6 °C 1 °C 1020.5 hPa Calm     89% 0 mm
01:54 2.4 °C 0.8 °C 1020.5 hPa Calm     89% 0 mm
01:59 2.4 °C 0.8 °C 1020.5 hPa Calm     89% 0 mm
02:04 2.3 °C 0.8 °C 1020.5 hPa Calm     90% 0 mm
02:09 2.3 °C 0.7 °C 1020.5 hPa Calm     89% 0 mm
02:14 2.2 °C 0.8 °C 1020.2 hPa Calm     90% 0 mm
02:19 2.2 °C 0.6 °C 1020.2 hPa Calm     89% 0 mm
02:24 1.9 °C 0.5 °C 1020.2 hPa Calm     90% 0 mm
02:29 1.9 °C 0.4 °C 1020.2 hPa Calm     90% 0 mm
02:34 1.9 °C 0.4 °C 1020.2 hPa Calm     90% 0 mm
02:39 1.8 °C 0.4 °C 1020.2 hPa Calm     90% 0 mm
02:44 1.8 °C 0.3 °C 1020.2 hPa Calm     90% 0 mm
02:49 1.8 °C 0.3 °C 1019.9 hPa Calm     90% 0 mm
02:54 1.7 °C 0.3 °C 1019.9 hPa Calm     90% 0 mm
02:59 1.7 °C 0.3 °C 1019.9 hPa Calm     90% 0 mm
03:04 1.7 °C 0.3 °C 1019.9 hPa Calm     90% 0 mm
03:09 1.7 °C 0.4 °C 1019.9 hPa Calm     91% 0 mm
03:14 1.6 °C 0.1 °C 1019.5 hPa Calm     90% 0 mm
03:19 1.6 °C 0.2 °C 1019.5 hPa Calm     91% 0 mm
03:24 1.4 °C 0 °C 1019.9 hPa Calm     90% 0 mm
03:29 1.5 °C 0.2 °C 1019.5 hPa Calm     91% 0 mm
03:34 1.4 °C 0.1 °C 1019.5 hPa Calm     91% 0 mm
03:39 1.4 °C -0.1 °C 1019.5 hPa Calm     90% 0 mm
03:44 1.4 °C 0.1 °C 1019.5 hPa Calm     91% 0 mm
03:49 1.3 °C -0.2 °C 1019.5 hPa Calm     90% 0 mm
03:54 1.2 °C -0.2 °C 1019.5 hPa Calm     91% 0 mm
03:59 1.1 °C -0.2 °C 1019.5 hPa Calm     91% 0 mm
04:04 1.1 °C -0.2 °C 1019.5 hPa Calm     91% 0 mm
04:09 1.1 °C -0.3 °C 1019.5 hPa Calm     90% 0 mm
04:14 1.1 °C -0.2 °C 1019.5 hPa Calm     91% 0 mm
04:19 0.9 °C -0.3 °C 1019.5 hPa Calm     91% 0 mm
04:24 0.9 °C -0.3 °C 1019.5 hPa Calm     91% 0 mm
04:29 0.9 °C -0.4 °C 1019.5 hPa Calm     91% 0 mm
04:34 0.9 °C -0.4 °C 1019.5 hPa Calm     91% 0 mm
04:39 0.8 °C -0.4 °C 1019.5 hPa Calm     91% 0 mm
04:44 0.9 °C -0.4 °C 1019.5 hPa Calm     91% 0 mm
04:49 1 °C -0.3 °C 1019.5 hPa Calm     91% 0 mm
04:54 1 °C -0.3 °C 1019.5 hPa Calm     91% 0 mm
04:59 1 °C -0.3 °C 1019.5 hPa Calm     91% 0 mm
05:04 1.1 °C -0.2 °C 1019.5 hPa Calm     91% 0 mm
05:09 0.8 °C -0.6 °C 1019.9 hPa Calm     90% 0 mm
05:14 0.8 °C -0.4 °C 1019.5 hPa Calm     91% 0 mm
05:19 0.8 °C -0.5 °C 1019.9 hPa Calm     91% 0 mm
05:24 0.8 °C -0.4 °C 1019.9 hPa Calm     91% 0 mm
05:29 0.8 °C -0.6 °C 1019.5 hPa Calm     90% 0 mm
05:34 0.9 °C -0.4 °C 1019.5 hPa Calm     91% 0 mm
05:39 0.9 °C -0.5 °C 1019.9 hPa Calm     90% 0 mm
05:44 0.8 °C -0.6 °C 1019.9 hPa Calm     90% 0 mm
05:49 0.9 °C -0.6 °C 1019.9 hPa Calm     90% 0 mm
05:54 0.8 °C -0.6 °C 1019.9 hPa Calm     90% 0 mm
05:59 0.8 °C -0.6 °C 1019.9 hPa Calm     90% 0 mm
06:04 0.8 °C -0.6 °C 1019.9 hPa Calm     90% 0 mm
06:09 0.8 °C -0.6 °C 1019.9 hPa Calm     90% 0 mm
06:14 0.7 °C -0.7 °C 1019.9 hPa Calm     90% 0 mm
06:19 0.7 °C -0.7 °C 1019.9 hPa Calm     90% 0 mm
06:24 0.6 °C -0.8 °C 1020.2 hPa Calm     90% 0 mm
06:29 0.6 °C -0.9 °C 1020.2 hPa Calm     90% 0 mm
06:34 0.6 °C -0.9 °C 1020.5 hPa Calm     90% 0 mm
06:39 0.6 °C -0.9 °C 1020.5 hPa Calm     90% 0 mm
06:44 0.6 °C -0.7 °C 1020.5 hPa Calm     91% 0 mm
06:49 0.7 °C -0.6 °C 1020.5 hPa Calm     91% 0 mm
06:54 0.8 °C -0.4 °C 1020.5 hPa Calm     91% 0 mm
06:59 1.1 °C -0.2 °C 1020.5 hPa Calm     91% 0 mm
07:04 1.3 °C 0 °C 1020.5 hPa Calm     91% 0 mm
07:09 1.6 °C 0.1 °C 1020.9 hPa Calm     90% 0 mm
07:14 1.8 °C 0.4 °C 1020.9 hPa Calm     90% 0 mm
07:19 2 °C 0.6 °C 1020.9 hPa Calm     90% 0 mm
07:24 2.2 °C 0.6 °C 1020.9 hPa Calm     89% 0 mm
07:29 2.4 °C 0.8 °C 1020.9 hPa Calm     89% 0 mm
07:34 2.6 °C 0.8 °C 1020.9 hPa SSW 3.2 km/h 6.4 km/h 88% 0 mm
07:39 2.8 °C 1.1 °C 1020.9 hPa SSW 1.6 km/h 6.4 km/h 88% 0 mm
07:44 3.1 °C 1.2 °C 1020.9 hPa SSW 4.8 km/h 4.8 km/h 87% 0 mm
07:49 3.3 °C 1.4 °C 1020.9 hPa South 3.2 km/h 6.4 km/h 87% 0 mm
07:54 3.7 °C 1.4 °C 1020.9 hPa South 3.2 km/h 6.4 km/h 85% 0 mm
07:59 3.9 °C 1.7 °C 1020.9 hPa South 3.2 km/h 8 km/h 85% 0 mm
08:04 4.3 °C 1.7 °C 1020.9 hPa South 4.8 km/h 8 km/h 83% 0 mm
08:09 4.7 °C 1.8 °C 1020.9 hPa SSW 3.2 km/h 8 km/h 82% 0 mm
08:14 5.1 °C 2.2 °C 1020.9 hPa South 8 km/h 8 km/h 82% 0 mm
08:19 5.4 °C 2.4 °C 1020.9 hPa SSW 4.8 km/h 8 km/h 81% 0 mm
08:24 5.8 °C 2.4 °C 1020.9 hPa SSW 3.2 km/h 8 km/h 79% 0 mm
08:29 6.2 °C 2.7 °C 1020.9 hPa SW 3.2 km/h 9.7 km/h 78% 0 mm
08:34 6.7 °C 3.2 °C 1020.9 hPa SW 3.2 km/h 9.7 km/h 78% 0 mm
08:39 7.1 °C 3.2 °C 1020.9 hPa WSW 6.4 km/h 9.7 km/h 76% 0 mm
08:44 7.6 °C 3.3 °C 1020.9 hPa WSW 3.2 km/h 11.3 km/h 74% 0 mm
08:49 7.9 °C 3.2 °C 1020.9 hPa SSW 8 km/h 12.9 km/h 72% 0 mm
08:54 7.9 °C 3 °C 1020.9 hPa SW 3.2 km/h 14.5 km/h 71% 0 mm
08:59 8.3 °C 3.5 °C 1020.9 hPa SSW 11.3 km/h 11.3 km/h 72% 0 mm
09:04 8.4 °C 3.2 °C 1020.9 hPa SSW 8 km/h 14.5 km/h 70% 0 mm
09:09 8.6 °C 3.7 °C 1020.9 hPa WSW 4.8 km/h 12.9 km/h 71% 0 mm
09:14 9.1 °C 3.7 °C 1020.9 hPa WSW 4.8 km/h 9.7 km/h 69% 0 mm
09:19 9.4 °C 3.6 °C 1020.9 hPa SW 6.4 km/h 12.9 km/h 67% 0 mm
09:24 9.4 °C 3.3 °C 1020.9 hPa WSW 8 km/h 16.1 km/h 66% 0 mm
09:29 9.4 °C 2.9 °C 1020.9 hPa WSW 8 km/h 16.1 km/h 64% 0 mm
09:34 9.8 °C 3.8 °C 1020.9 hPa WSW 8 km/h 14.5 km/h 66% 0 mm
09:39 10.2 °C 3.7 °C 1020.9 hPa WSW 6.4 km/h 12.9 km/h 64% 0 mm
09:44 10.2 °C 3.7 °C 1020.9 hPa SW 8 km/h 12.9 km/h 64% 0 mm
09:49 10.3 °C 3.6 °C 1020.9 hPa WSW 8 km/h 11.3 km/h 63% 0 mm
09:54 10.6 °C 3.6 °C 1020.9 hPa West 9.7 km/h 12.9 km/h 62% 0 mm
09:59 10.8 °C 4 °C 1020.5 hPa South 11.3 km/h 12.9 km/h 63% 0 mm
10:04 10.8 °C 3.8 °C 1020.5 hPa South 14.5 km/h 17.7 km/h 62% 0 mm
10:09 10.9 °C 3.7 °C 1020.5 hPa South 6.4 km/h 16.1 km/h 61% 0 mm
10:14 11.2 °C 4.2 °C 1020.5 hPa SW 8 km/h 14.5 km/h 62% 0 mm
10:19 11.3 °C 3.8 °C 1020.5 hPa SW 8 km/h 14.5 km/h 60% 0 mm
10:24 11.7 °C 4.2 °C 1020.9 hPa WSW 8 km/h 17.7 km/h 60% 0 mm
10:29 11.7 °C 4.4 °C 1020.9 hPa WSW 8 km/h 17.7 km/h 61% 0 mm
10:34 11.9 °C 3.7 °C 1020.9 hPa WSW 8 km/h 17.7 km/h 57% 0 mm
10:39 11.9 °C 3.9 °C 1020.5 hPa West 8 km/h 14.5 km/h 58% 0 mm
10:44 11.7 °C 3.2 °C 1020.5 hPa WSW 6.4 km/h 16.1 km/h 56% 0 mm
10:49 11.8 °C 3.6 °C 1020.5 hPa SW 9.7 km/h 14.5 km/h 57% 0 mm
10:54 12.1 °C 4.3 °C 1020.5 hPa SW 11.3 km/h 17.7 km/h 59% 0 mm
10:59 12.2 °C 4.4 °C 1020.5 hPa WSW 4.8 km/h 12.9 km/h 59% 0 mm
11:04 12.6 °C 4.6 °C 1020.5 hPa WSW 6.4 km/h 12.9 km/h 58% 0 mm
11:09 12.6 °C 3.7 °C 1020.5 hPa SW 9.7 km/h 12.9 km/h 55% 0 mm
11:14 12.7 °C 3.8 °C 1020.5 hPa SW 4.8 km/h 14.5 km/h 55% 0 mm
11:19 12.9 °C 3.8 °C 1020.5 hPa WSW 8 km/h 14.5 km/h 54% 0 mm
11:24 13.2 °C 4.6 °C 1020.5 hPa WSW 6.4 km/h 14.5 km/h 56% 0 mm
11:29 13.3 °C 4.9 °C 1020.5 hPa WSW 6.4 km/h 14.5 km/h 57% 0 mm
11:34 13.6 °C 4.2 °C 1020.5 hPa West 6.4 km/h 14.5 km/h 53% 0 mm
11:39 13.1 °C 4 °C 1020.5 hPa West 8 km/h 16.1 km/h 54% 0 mm
11:44 13.7 °C 4.5 °C 1020.5 hPa West 8 km/h 14.5 km/h 54% 0 mm
11:49 13.6 °C 3.6 °C 1020.5 hPa West 8 km/h 16.1 km/h 51% 0 mm
11:54 13.6 °C 3.4 °C 1020.5 hPa SW 3.2 km/h 17.7 km/h 50% 0 mm
11:59 13.7 °C 3.7 °C 1020.2 hPa WSW 14.5 km/h 19.3 km/h 51% 0 mm
12:04 13.9 °C 4.2 °C 1020.5 hPa West 3.2 km/h 16.1 km/h 52% 0 mm
12:09 14.2 °C 3 °C 1020.2 hPa WSW 9.7 km/h 14.5 km/h 47% 0 mm
12:14 14.2 °C 4.2 °C 1020.2 hPa WSW 6.4 km/h 14.5 km/h 51% 0 mm
12:19 14.6 °C 3.4 °C 1020.2 hPa WSW 8 km/h 16.1 km/h 47% 0 mm
12:24 14.4 °C 2.3 °C 1020.2 hPa WSW 9.7 km/h 17.7 km/h 44% 0 mm
12:29 14.3 °C 2.2 °C 1020.2 hPa SW 12.9 km/h 17.7 km/h 44% 0 mm
12:34 14.6 °C 2.1 °C 1020.2 hPa SW 11.3 km/h 20.9 km/h 43% 0 mm
12:39 14.5 °C 2.7 °C 1019.9 hPa WSW 9.7 km/h 14.5 km/h 45% 0 mm
12:44 15.1 °C 2.3 °C 1019.9 hPa WSW 8 km/h 16.1 km/h 42% 0 mm
12:49 15.1 °C 2.2 °C 1019.9 hPa SW 9.7 km/h 17.7 km/h 42% 0 mm
12:54 14.8 °C 0.9 °C 1019.9 hPa WSW 9.7 km/h 20.9 km/h 39% 0 mm
12:59 14.9 °C 0.7 °C 1019.9 hPa WSW 11.3 km/h 20.9 km/h 38% 0 mm
13:04 15.2 °C 2 °C 1019.5 hPa SW 9.7 km/h 19.3 km/h 41% 0 mm
13:09 15.5 °C 1.9 °C 1019.5 hPa SW 11.3 km/h 16.1 km/h 40% 0 mm
13:14 15.6 °C -0.7 °C 1019.5 hPa SW 8 km/h 20.9 km/h 33% 0 mm
13:19 15.2 °C -0.6 °C 1019.5 hPa WSW 8 km/h 20.9 km/h 34% 0 mm
13:24 15.6 °C -0.2 °C 1019.5 hPa SW 11.3 km/h 16.1 km/h 34% 0 mm
13:29 15.5 °C -1.6 °C 1019.5 hPa WSW 12.9 km/h 17.7 km/h 31% 0 mm
13:34 15.6 °C -0.3 °C 1019.5 hPa WSW 8 km/h 16.1 km/h 34% 0 mm
13:39 15.6 °C 0.1 °C 1019.5 hPa West 8 km/h 16.1 km/h 35% 0 mm
13:44 15.6 °C -1.1 °C 1019.2 hPa WSW 9.7 km/h 16.1 km/h 32% 0 mm
13:49 15.7 °C -0.9 °C 1019.2 hPa WSW 9.7 km/h 16.1 km/h 32% 0 mm
13:54 15.8 °C -0.5 °C 1019.2 hPa WSW 8 km/h 17.7 km/h 33% 0 mm
14:00 15.9 °C 0.4 °C 1018.8 hPa WSW 8 km/h 17.7 km/h 35% 0 mm
14:05 16 °C -0.7 °C 1018.8 hPa WSW 8 km/h 16.1 km/h 32% 0 mm
14:10 16.1 °C -0.7 °C 1018.8 hPa WSW 8 km/h 14.5 km/h 32% 0 mm
14:15 16.2 °C -0.1 °C 1018.8 hPa SSW 6.4 km/h 14.5 km/h 33% 0 mm
14:20 16.4 °C 0.9 °C 1018.8 hPa SW 8 km/h 14.5 km/h 35% 0 mm
14:25 16.6 °C 0.6 °C 1018.8 hPa SW 11.3 km/h 12.9 km/h 34% 0 mm
14:30 16.3 °C 0.4 °C 1018.8 hPa SSW 4.8 km/h 12.9 km/h 34% 0 mm
14:35 16.3 °C 0.8 °C 1018.8 hPa South 9.7 km/h 16.1 km/h 35% 0 mm
14:40 16.3 °C -0.4 °C 1018.8 hPa West 8 km/h 14.5 km/h 32% 0 mm
14:45 16.7 °C 1.9 °C 1018.8 hPa SW 8 km/h 14.5 km/h 37% 0 mm
14:50 16.3 °C -0.4 °C 1018.8 hPa WSW 8 km/h 17.7 km/h 32% 0 mm
14:55 16.2 °C -0.9 °C 1018.5 hPa SW 8 km/h 17.7 km/h 31% 0 mm
15:00 16.3 °C 0 °C 1018.5 hPa WSW 8 km/h 16.1 km/h 33% 0 mm
15:05 16.8 °C 1.6 °C 1018.5 hPa West 6.4 km/h 14.5 km/h 36% 0 mm
15:10 16.7 °C 0.3 °C 1018.2 hPa SW 8 km/h 12.9 km/h 33% 0 mm
15:15 16.8 °C 0 °C 1018.2 hPa SW 6.4 km/h 14.5 km/h 32% 0 mm
15:20 16.6 °C -3 °C 1018.2 hPa SSW 8 km/h 12.9 km/h 26% 0 mm
15:25 16.4 °C -1.7 °C 1018.2 hPa SW 9.7 km/h 16.1 km/h 29% 0 mm
15:30 16.6 °C -2.6 °C 1018.2 hPa SW 6.4 km/h 16.1 km/h 27% 0 mm
15:35 16.6 °C -0.6 °C 1018.2 hPa WSW 11.3 km/h 12.9 km/h 31% 0 mm
15:40 16.5 °C -1.2 °C 1018.2 hPa WSW 3.2 km/h 17.7 km/h 30% 0 mm
15:45 16.7 °C -1.5 °C 1018.2 hPa WSW 6.4 km/h 14.5 km/h 29% 0 mm
15:50 16.8 °C -0.9 °C 1018.2 hPa WSW 6.4 km/h 16.1 km/h 30% 0 mm
15:55 16.8 °C -3.3 °C 1018.2 hPa WSW 8 km/h 16.1 km/h 25% 0 mm
16:00 16.6 °C -1.1 °C 1017.8 hPa WSW 8 km/h 17.7 km/h 30% 0 mm
16:05 17 °C -1.7 °C 1017.8 hPa SW 8 km/h 14.5 km/h 28% 0 mm
16:10 16.7 °C -1.9 °C 1018.2 hPa WSW 9.7 km/h 16.1 km/h 28% 0 mm
16:15 16.3 °C -3.3 °C 1018.2 hPa WSW 3.2 km/h 16.1 km/h 26% 0 mm
16:20 16.7 °C -0.1 °C 1018.2 hPa WSW 8 km/h 16.1 km/h 32% 0 mm
16:25 16.4 °C -1.2 °C 1018.2 hPa WSW 8 km/h 16.1 km/h 30% 0 mm
16:30 16.3 °C -2.3 °C 1018.2 hPa SW 9.7 km/h 16.1 km/h 28% 0 mm
16:35 16.6 °C -0.6 °C 1018.2 hPa WSW 3.2 km/h 12.9 km/h 31% 0 mm
16:40 16.4 °C -0.8 °C 1018.2 hPa West 9.7 km/h 16.1 km/h 31% 0 mm
16:45 16.1 °C -1.6 °C 1018.2 hPa WSW 8 km/h 16.1 km/h 30% 0 mm
16:50 16.1 °C -1.1 °C 1018.2 hPa WSW 9.7 km/h 16.1 km/h 31% 0 mm
16:55 16.2 °C 0.3 °C 1017.8 hPa SW 3.2 km/h 12.9 km/h 34% 0 mm
17:00 16.3 °C 0.4 °C 1017.8 hPa WSW 8 km/h 12.9 km/h 34% 0 mm
17:05 16.1 °C -0.2 °C 1018.2 hPa WSW 6.4 km/h 12.9 km/h 33% 0 mm
17:10 15.9 °C -0.8 °C 1018.2 hPa SW 8 km/h 14.5 km/h 32% 0 mm
17:15 15.7 °C -1.9 °C 1018.2 hPa SW 11.3 km/h 14.5 km/h 30% 0 mm
17:20 15.6 °C -1.9 °C 1018.2 hPa SW 8 km/h 16.1 km/h 30% 0 mm
17:25 15.8 °C -1.3 °C 1018.2 hPa WSW 8 km/h 16.1 km/h 31% 0 mm
17:30 16 °C -1.6 °C 1018.2 hPa SW 8 km/h 14.5 km/h 30% 0 mm
17:35 16.1 °C -1.5 °C 1018.2 hPa SW 8 km/h 16.1 km/h 30% 0 mm
17:40 16.1 °C -1.5 °C 1018.2 hPa West 4.8 km/h 12.9 km/h 30% 0 mm
17:45 16.2 °C -1.4 °C 1018.2 hPa SSW 6.4 km/h 11.3 km/h 30% 0 mm
17:50 16.2 °C -1.4 °C 1018.2 hPa SSW 6.4 km/h 9.7 km/h 30% 0 mm
17:55 16.4 °C -1.7 °C 1017.8 hPa WSW 4.8 km/h 11.3 km/h 29% 0 mm
18:00 16.3 °C -2.7 °C 1018.2 hPa WSW 4.8 km/h 12.9 km/h 27% 0 mm
18:05 16.3 °C -3.3 °C 1018.2 hPa SW 8 km/h 11.3 km/h 26% 0 mm
18:10 16.2 °C -3.4 °C 1018.2 hPa WSW 3.2 km/h 12.9 km/h 26% 0 mm
18:15 16 °C -3.5 °C 1018.2 hPa West 4.8 km/h 12.9 km/h 26% 0 mm
18:20 16 °C -4.6 °C 1018.2 hPa West 4.8 km/h 11.3 km/h 24% 0 mm
18:25 16 °C -4.1 °C 1018.2 hPa West 4.8 km/h 11.3 km/h 25% 0 mm
18:30 16 °C -3.5 °C 1018.2 hPa WSW 4.8 km/h 9.7 km/h 26% 0 mm
18:35 15.9 °C -4.1 °C 1018.2 hPa SW 6.4 km/h 8 km/h 25% 0 mm
18:40 15.9 °C -4.7 °C 1018.2 hPa SW 4.8 km/h 11.3 km/h 24% 0 mm
18:45 15.9 °C -3.6 °C 1018.2 hPa SSW 4.8 km/h 9.7 km/h 26% 0 mm
18:50 15.8 °C -4.2 °C 1018.2 hPa SW 6.4 km/h 9.7 km/h 25% 0 mm
18:55 15.7 °C -2.8 °C 1018.2 hPa SSW 6.4 km/h 9.7 km/h 28% 0 mm
19:00 15.6 °C -2.9 °C 1018.2 hPa SSW 3.2 km/h 11.3 km/h 28% 0 mm
19:05 15.4 °C -1.6 °C 1018.2 hPa SW 6.4 km/h 8 km/h 31% 0 mm
19:10 15.3 °C -1.7 °C 1018.2 hPa SW 4.8 km/h 8 km/h 31% 0 mm
19:15 15.2 °C -1.4 °C 1018.2 hPa SW 4.8 km/h 9.7 km/h 32% 0 mm
19:20 14.9 °C -1.6 °C 1018.2 hPa SW 4.8 km/h 9.7 km/h 32% 0 mm
19:25 14.7 °C -2.3 °C 1018.2 hPa SSW 4.8 km/h 11.3 km/h 31% 0 mm
19:30 14.4 °C -1.7 °C 1018.2 hPa SW 4.8 km/h 11.3 km/h 33% 0 mm
19:35 14.2 °C -1.9 °C 1018.2 hPa SSW 4.8 km/h 8 km/h 33% 0 mm
19:40 14 °C -1.6 °C 1017.8 hPa SW 3.2 km/h 8 km/h 34% 0 mm
19:45 13.8 °C -1.1 °C 1017.8 hPa SW 3.2 km/h 8 km/h 36% 0 mm
19:50 13.6 °C -0.4 °C 1017.8 hPa SSW 3.2 km/h 8 km/h 38% 0 mm
19:55 13.3 °C -0.8 °C 1017.8 hPa SW 1.6 km/h 6.4 km/h 38% 0 mm
20:00 13 °C -1.4 °C 1017.8 hPa SW 3.2 km/h 4.8 km/h 37% 0 mm
20:05 12.8 °C -1.5 °C 1017.8 hPa SW 3.2 km/h 4.8 km/h 37% 0 mm
20:10 12.7 °C -2.1 °C 1017.8 hPa WSW 1.6 km/h 6.4 km/h 36% 0 mm
20:15 12.4 °C -1.9 °C 1017.8 hPa WSW 1.6 km/h 6.4 km/h 37% 0 mm
20:20 12.2 °C -1.4 °C 1017.8 hPa WSW 1.6 km/h 4.8 km/h 39% 0 mm
20:25 11.9 °C -1.6 °C 1017.8 hPa WSW 1.6 km/h 3.2 km/h 39% 0 mm
20:30 11.7 °C -1.1 °C 1017.8 hPa WSW 1.6 km/h 3.2 km/h 41% 0 mm
20:35 11.6 °C -1.3 °C 1017.8 hPa Calm     41% 0 mm
20:40 11.4 °C -1.1 °C 1017.8 hPa Calm     42% 0 mm
20:45 11.2 °C -0.9 °C 1017.8 hPa Calm     43% 0 mm
20:50 10.9 °C -0.6 °C 1017.8 hPa Calm   3.2 km/h 45% 0 mm
20:55 10.7 °C -0.4 °C 1018.2 hPa South 4.8 km/h 4.8 km/h 46% 0 mm
21:00 10.5 °C -0.3 °C 1018.2 hPa South 1.6 km/h 4.8 km/h 47% 0 mm
21:05 10.3 °C -0.5 °C 1018.2 hPa Calm   3.2 km/h 47% 0 mm
21:10 10.2 °C -0.1 °C 1018.5 hPa South 1.6 km/h 4.8 km/h 49% 0 mm
21:15 9.9 °C -0.3 °C 1018.5 hPa South 1.6 km/h 4.8 km/h 49% 0 mm
21:20 9.8 °C -0.2 °C 1018.5 hPa Calm   4.8 km/h 50% 0 mm
21:25 9.6 °C 0.2 °C 1018.5 hPa SSW 3.2 km/h 4.8 km/h 52% 0 mm
21:30 9.4 °C 0.1 °C 1018.5 hPa SW 4.8 km/h 6.4 km/h 52% 0 mm
21:35 9.4 °C 0.3 °C 1018.5 hPa SW 1.6 km/h 4.8 km/h 53% 0 mm
21:40 9.3 °C 0.4 °C 1018.5 hPa SW 1.6 km/h 4.8 km/h 54% 0 mm
21:45 9.2 °C 0.4 °C 1018.5 hPa SW 1.6 km/h 4.8 km/h 54% 0 mm
21:50 9.1 °C 0.2 °C 1018.5 hPa Calm   3.2 km/h 54% 0 mm
21:55 8.9 °C 0.1 °C 1018.8 hPa Calm     54% 0 mm
22:00 8.8 °C 0.2 °C 1018.8 hPa Calm     55% 0 mm
22:05 8.6 °C 0.1 °C 1018.8 hPa Calm     55% 0 mm
22:10 8.5 °C -0.1 °C 1018.8 hPa Calm     55% 0 mm
22:15 8.3 °C 0 °C 1018.5 hPa Calm     56% 0 mm
22:20 8.1 °C 0.1 °C 1018.5 hPa Calm     57% 0 mm
22:25 7.9 °C -0.1 °C 1018.5 hPa Calm     57% 0 mm
22:30 7.8 °C 0 °C 1018.8 hPa Calm     58% 0 mm
22:35 7.6 °C -0.1 °C 1018.8 hPa Calm     58% 0 mm
22:40 7.4 °C 0.2 °C 1018.5 hPa Calm     60% 0 mm
22:45 7.3 °C 0.1 °C 1018.5 hPa Calm     60% 0 mm
22:50 7.2 °C 0.2 °C 1018.8 hPa Calm     61% 0 mm
22:55 7.1 °C 0.3 °C 1018.8 hPa Calm     62% 0 mm
23:00 6.9 °C 0.2 °C 1018.8 hPa Calm     62% 0 mm
23:05 6.8 °C 0.3 °C 1018.8 hPa Calm     63% 0 mm
23:10 6.7 °C 0.2 °C 1018.8 hPa Calm     63% 0 mm
23:20 6.5 °C 0.2 °C 1018.8 hPa Calm     64% 0 mm
23:25 6.4 °C 0.3 °C 1018.8 hPa Calm     65% 0 mm
23:30 6.3 °C 0.4 °C 1018.8 hPa Calm     66% 0 mm
23:35 6.3 °C 0.4 °C 1018.8 hPa Calm     66% 0 mm
23:40 6.2 °C 0.5 °C 1018.8 hPa Calm     67% 0 mm
23:45 6.1 °C 0.6 °C 1018.8 hPa Calm     68% 0 mm
23:50 5.9 °C 0.5 °C 1018.8 hPa Calm     68% 0 mm
23:55 5.9 °C 0.6 °C 1018.5 hPa Calm     69% 0 mm
Buffalo, New York, USA
Compliments of Weather Underground - 2.5 mb